sensor_id;sensor_type;location;lat;lon;timestamp;pressure;altitude;pressure_sealevel;temperature;humidity
23643;BME280;11998;55.788;37.572;2023-02-18T00:00:41;99142.78;;;-7.02;100.00
23643;BME280;11998;55.788;37.572;2023-02-18T00:01:42;99141.09;;;-7.02;100.00
23643;BME280;11998;55.788;37.572;2023-02-18T00:02:43;99137.59;;;-7.04;100.00
23643;BME280;11998;55.788;37.572;2023-02-18T00:03:44;99149.50;;;-7.06;100.00
23643;BME280;11998;55.788;37.572;2023-02-18T00:04:45;99142.56;;;-7.07;100.00
23643;BME280;11998;55.788;37.572;2023-02-18T00:05:45;99127.28;;;-7.04;100.00
23643;BME280;11998;55.788;37.572;2023-02-18T00:06:46;99132.56;;;-7.01;100.00
23643;BME280;11998;55.788;37.572;2023-02-18T00:07:47;99129.91;;;-7.02;100.00
23643;BME280;11998;55.788;37.572;2023-02-18T00:08:48;99136.00;;;-7.00;100.00
23643;BME280;11998;55.788;37.572;2023-02-18T00:09:48;99144.47;;;-7.03;100.00
23643;BME280;11998;55.788;37.572;2023-02-18T00:10:49;99120.38;;;-7.05;100.00
23643;BME280;11998;55.788;37.572;2023-02-18T00:11:50;99132.28;;;-7.07;100.00
23643;BME280;11998;55.788;37.572;2023-02-18T00:12:51;99119.56;;;-7.04;100.00
23643;BME280;11998;55.788;37.572;2023-02-18T00:13:53;99117.13;;;-7.01;100.00
23643;BME280;11998;55.788;37.572;2023-02-18T00:14:54;99126.59;;;-7.00;100.00
23643;BME280;11998;55.788;37.572;2023-02-18T00:16:00;99125.66;;;-7.02;100.00
23643;BME280;11998;55.788;37.572;2023-02-18T00:17:00;99117.13;;;-7.01;100.00
23643;BME280;11998;55.788;37.572;2023-02-18T00:18:01;99123.09;;;-7.02;100.00
23643;BME280;11998;55.788;37.572;2023-02-18T00:19:04;99113.72;;;-7.00;100.00
23643;BME280;11998;55.788;37.572;2023-02-18T00:20:06;99113.72;;;-7.00;100.00
23643;BME280;11998;55.788;37.572;2023-02-18T00:21:07;99129.03;;;-7.03;100.00
23643;BME280;11998;55.788;37.572;2023-02-18T00:22:08;99121.44;;;-7.00;100.00
23643;BME280;11998;55.788;37.572;2023-02-18T00:23:08;99108.56;;;-7.00;100.00
23643;BME280;11998;55.788;37.572;2023-02-18T00:24:12;99113.72;;;-7.00;100.00
23643;BME280;11998;55.788;37.572;2023-02-18T00:25:14;99104.38;;;-6.98;100.00
23643;BME280;11998;55.788;37.572;2023-02-18T00:26:16;99108.56;;;-7.00;100.00
23643;BME280;11998;55.788;37.572;2023-02-18T00:27:17;99110.22;;;-7.02;100.00
23643;BME280;11998;55.788;37.572;2023-02-18T00:28:17;99114.38;;;-7.05;100.00
23643;BME280;11998;55.788;37.572;2023-02-18T00:29:18;99102.44;;;-7.03;100.00
23643;BME280;11998;55.788;37.572;2023-02-18T00:30:19;99104.13;;;-7.04;100.00
23643;BME280;11998;55.788;37.572;2023-02-18T00:31:25;99116.84;;;-7.07;100.00
23643;BME280;11998;55.788;37.572;2023-02-18T00:32:26;99101.56;;;-7.04;100.00
23643;BME280;11998;55.788;37.572;2023-02-18T00:33:26;99098.94;;;-7.05;100.00
23643;BME280;11998;55.788;37.572;2023-02-18T00:34:27;99098.97;;;-7.04;100.00
23643;BME280;11998;55.788;37.572;2023-02-18T00:35:27;99097.00;;;-7.10;100.00
23643;BME280;11998;55.788;37.572;2023-02-18T00:36:28;99100.75;;;-7.03;100.00
23643;BME280;11998;55.788;37.572;2023-02-18T00:37:29;99098.28;;;-7.00;100.00
23643;BME280;11998;55.788;37.572;2023-02-18T00:38:30;99093.69;;;-7.07;100.00
23643;BME280;11998;55.788;37.572;2023-02-18T00:39:30;99105.75;;;-7.06;100.00
23643;BME280;11998;55.788;37.572;2023-02-18T00:40:31;99099.66;;;-7.08;100.00
23643;BME280;11998;55.788;37.572;2023-02-18T00:41:33;99102.81;;;-7.15;100.00
23643;BME280;11998;55.788;37.572;2023-02-18T00:42:34;99092.75;;;-7.09;100.00
23643;BME280;11998;55.788;37.572;2023-02-18T00:43:34;99092.81;;;-7.07;100.00
23643;BME280;11998;55.788;37.572;2023-02-18T00:44:35;99090.00;;;-7.14;100.00
23643;BME280;11998;55.788;37.572;2023-02-18T00:45:35;99093.63;;;-7.08;100.00
23643;BME280;11998;55.788;37.572;2023-02-18T00:46:36;99089.25;;;-7.11;100.00
23643;BME280;11998;55.788;37.572;2023-02-18T00:47:37;99094.50;;;-7.08;100.00
23643;BME280;11998;55.788;37.572;2023-02-18T00:48:37;99090.88;;;-7.13;100.00
23643;BME280;11998;55.788;37.572;2023-02-18T00:49:38;99084.91;;;-7.12;100.00
23643;BME280;11998;55.788;37.572;2023-02-18T00:50:39;99081.41;;;-7.14;100.00
23643;BME280;11998;55.788;37.572;2023-02-18T00:51:39;99084.75;;;-7.17;100.00
23643;BME280;11998;55.788;37.572;2023-02-18T00:52:40;99080.59;;;-7.13;100.00
23643;BME280;11998;55.788;37.572;2023-02-18T00:53:40;99078.94;;;-7.11;100.00
23643;BME280;11998;55.788;37.572;2023-02-18T00:54:41;99077.84;;;-7.18;100.00
23643;BME280;11998;55.788;37.572;2023-02-18T00:55:43;99074.56;;;-7.14;100.00
23643;BME280;11998;55.788;37.572;2023-02-18T00:56:44;99084.09;;;-7.11;100.00
23643;BME280;11998;55.788;37.572;2023-02-18T00:57:44;99074.56;;;-7.14;100.00
23643;BME280;11998;55.788;37.572;2023-02-18T00:58:45;99071.66;;;-7.21;100.00
23643;BME280;11998;55.788;37.572;2023-02-18T00:59:46;99080.53;;;-7.15;100.00
23643;BME280;11998;55.788;37.572;2023-02-18T01:00:47;99076.19;;;-7.16;100.00
23643;BME280;11998;55.788;37.572;2023-02-18T01:01:48;99073.28;;;-7.23;100.00
23643;BME280;11998;55.788;37.572;2023-02-18T01:02:48;99065.63;;;-7.22;100.00
23643;BME280;11998;55.788;37.572;2023-02-18T01:03:53;99071.72;;;-7.20;100.00
23643;BME280;11998;55.788;37.572;2023-02-18T01:04:53;99069.78;;;-7.25;100.00
23643;BME280;11998;55.788;37.572;2023-02-18T01:05:54;99069.91;;;-7.22;100.00
23643;BME280;11998;55.788;37.572;2023-02-18T01:06:54;99079.25;;;-7.24;100.00
23643;BME280;11998;55.788;37.572;2023-02-18T01:07:55;99064.53;;;-7.28;100.00
23643;BME280;11998;55.788;37.572;2023-02-18T01:08:56;99055.13;;;-7.28;100.00
23643;BME280;11998;55.788;37.572;2023-02-18T01:09:56;99064.41;;;-7.31;100.00
23643;BME280;11998;55.788;37.572;2023-02-18T01:10:57;99061.97;;;-7.28;100.00
23643;BME280;11998;55.788;37.572;2023-02-18T01:11:59;99052.47;;;-7.29;100.00
23643;BME280;11998;55.788;37.572;2023-02-18T01:13:00;99045.50;;;-7.32;100.00
23643;BME280;11998;55.788;37.572;2023-02-18T01:14:03;99044.75;;;-7.29;100.00
23643;BME280;11998;55.788;37.572;2023-02-18T01:15:05;99049.91;;;-7.29;100.00
23643;BME280;11998;55.788;37.572;2023-02-18T01:16:06;99045.59;;;-7.30;100.00
23643;BME280;11998;55.788;37.572;2023-02-18T01:17:06;99044.63;;;-7.32;100.00
23643;BME280;11998;55.788;37.572;2023-02-18T01:18:08;99030.16;;;-7.30;100.00
23643;BME280;11998;55.788;37.572;2023-02-18T01:19:08;99039.41;;;-7.34;100.00
23643;BME280;11998;55.788;37.572;2023-02-18T01:20:10;99039.19;;;-7.40;100.00
23643;BME280;11998;55.788;37.572;2023-02-18T01:21:12;99029.06;;;-7.35;100.00
23643;BME280;11998;55.788;37.572;2023-02-18T01:22:12;99028.13;;;-7.37;100.00
23643;BME280;11998;55.788;37.572;2023-02-18T01:23:13;99037.66;;;-7.35;100.00
23643;BME280;11998;55.788;37.572;2023-02-18T01:24:14;99031.63;;;-7.35;100.00
23643;BME280;11998;55.788;37.572;2023-02-18T01:25:15;99024.75;;;-7.36;100.00
23643;BME280;11998;55.788;37.572;2023-02-18T01:26:15;99038.03;;;-7.47;100.00
23643;BME280;11998;55.788;37.572;2023-02-18T01:27:16;99029.66;;;-7.43;100.00
23643;BME280;11998;55.788;37.572;2023-02-18T01:28:17;99032.88;;;-7.47;100.00
23643;BME280;11998;55.788;37.572;2023-02-18T01:29:18;99021.84;;;-7.44;100.00
23643;BME280;11998;55.788;37.572;2023-02-18T01:30:19;99021.78;;;-7.46;100.00
23643;BME280;11998;55.788;37.572;2023-02-18T01:31:20;99019.16;;;-7.47;100.00
23643;BME280;11998;55.788;37.572;2023-02-18T01:32:20;99020.72;;;-7.51;100.00
23643;BME280;11998;55.788;37.572;2023-02-18T01:33:21;99005.28;;;-7.51;100.00
23643;BME280;11998;55.788;37.572;2023-02-18T01:34:22;99014.88;;;-7.47;100.00
23643;BME280;11998;55.788;37.572;2023-02-18T01:35:22;99014.06;;;-7.46;100.00
23643;BME280;11998;55.788;37.572;2023-02-18T01:36:23;99001.28;;;-7.44;100.00
23643;BME280;11998;55.788;37.572;2023-02-18T01:37:24;98998.78;;;-7.43;100.00
23643;BME280;11998;55.788;37.572;2023-02-18T01:38:24;98996.94;;;-7.45;100.00
23643;BME280;11998;55.788;37.572;2023-02-18T01:39:25;99018.16;;;-7.51;100.00
23643;BME280;11998;55.788;37.572;2023-02-18T01:40:27;98994.19;;;-7.50;100.00
23643;BME280;11998;55.788;37.572;2023-02-18T01:41:28;98988.34;;;-7.46;100.00
23643;BME280;11998;55.788;37.572;2023-02-18T01:42:29;98998.47;;;-7.50;100.00
23643;BME280;11998;55.788;37.572;2023-02-18T01:43:30;98989.06;;;-7.50;100.00
23643;BME280;11998;55.788;37.572;2023-02-18T01:44:33;98997.03;;;-7.44;100.00
23643;BME280;11998;55.788;37.572;2023-02-18T01:46:34;98980.84;;;-7.41;100.00
23643;BME280;11998;55.788;37.572;2023-02-18T01:47:34;98985.06;;;-7.43;100.00
23643;BME280;11998;55.788;37.572;2023-02-18T01:49:36;98969.81;;;-7.38;100.00
23643;BME280;11998;55.788;37.572;2023-02-18T01:50:40;98972.25;;;-7.42;100.00
23643;BME280;11998;55.788;37.572;2023-02-18T01:51:46;98973.06;;;-7.43;100.00
23643;BME280;11998;55.788;37.572;2023-02-18T01:52:48;98992.69;;;-7.45;100.00
23643;BME280;11998;55.788;37.572;2023-02-18T01:55:00;98989.22;;;-7.45;100.00
23643;BME280;11998;55.788;37.572;2023-02-18T01:56:02;98978.06;;;-7.46;100.00
23643;BME280;11998;55.788;37.572;2023-02-18T01:57:17;98972.81;;;-7.49;100.00
23643;BME280;11998;55.788;37.572;2023-02-18T01:58:20;98965.16;;;-7.47;100.00
23643;BME280;11998;55.788;37.572;2023-02-18T01:59:24;98980.53;;;-7.49;100.00
23643;BME280;11998;55.788;37.572;2023-02-18T02:00:25;98959.00;;;-7.51;100.00
23643;BME280;11998;55.788;37.572;2023-02-18T02:01:26;98967.56;;;-7.52;100.00
23643;BME280;11998;55.788;37.572;2023-02-18T02:02:28;98963.28;;;-7.51;100.00
23643;BME280;11998;55.788;37.572;2023-02-18T02:03:29;98964.03;;;-7.54;100.00
23643;BME280;11998;55.788;37.572;2023-02-18T02:04:30;98963.09;;;-7.56;100.00
23643;BME280;11998;55.788;37.572;2023-02-18T02:05:32;98953.00;;;-7.51;100.00
23643;BME280;11998;55.788;37.572;2023-02-18T02:06:33;98959.84;;;-7.52;100.00
23643;BME280;11998;55.788;37.572;2023-02-18T02:07:33;98956.34;;;-7.54;100.00
23643;BME280;11998;55.788;37.572;2023-02-18T02:08:34;98975.22;;;-7.53;100.00
23643;BME280;11998;55.788;37.572;2023-02-18T02:09:35;98953.75;;;-7.54;100.00
23643;BME280;11998;55.788;37.572;2023-02-18T02:12:35;98965.53;;;-7.59;100.00
23643;BME280;11998;55.788;37.572;2023-02-18T02:15:26;98957.47;;;-7.68;100.00
23643;BME280;11998;55.788;37.572;2023-02-18T02:16:43;98963.38;;;-7.69;100.00
23643;BME280;11998;55.788;37.572;2023-02-18T02:21:56;98942.59;;;-7.75;100.00
23643;BME280;11998;55.788;37.572;2023-02-18T02:27:54;98938.38;;;-7.73;100.00
23643;BME280;11998;55.788;37.572;2023-02-18T02:33:51;98932.47;;;-7.71;100.00
23643;BME280;11998;55.788;37.572;2023-02-18T02:35:04;98933.31;;;-7.72;100.00
23643;BME280;11998;55.788;37.572;2023-02-18T02:36:23;98929.41;;;-7.62;100.00
23643;BME280;11998;55.788;37.572;2023-02-18T02:37:48;98919.25;;;-7.59;100.00
23643;BME280;11998;55.788;37.572;2023-02-18T02:39:13;98945.09;;;-7.56;100.00
23643;BME280;11998;55.788;37.572;2023-02-18T02:44:11;98948.38;;;-7.81;100.00
23643;BME280;11998;55.788;37.572;2023-02-18T02:46:56;98955.75;;;-7.88;100.00
23643;BME280;11998;55.788;37.572;2023-02-18T02:50:40;98934.91;;;-7.94;100.00
23643;BME280;11998;55.788;37.572;2023-02-18T02:51:53;98931.69;;;-7.90;100.00
23643;BME280;11998;55.788;37.572;2023-02-18T02:53:01;98915.25;;;-7.94;100.00
23643;BME280;11998;55.788;37.572;2023-02-18T02:54:19;98907.63;;;-7.92;100.00
23643;BME280;11998;55.788;37.572;2023-02-18T02:55:20;98921.41;;;-7.90;100.00
23643;BME280;11998;55.788;37.572;2023-02-18T02:56:23;98915.34;;;-7.92;100.00
23643;BME280;11998;55.788;37.572;2023-02-18T02:58:25;98931.41;;;-7.96;100.00
23643;BME280;11998;55.788;37.572;2023-02-18T02:59:25;98905.06;;;-7.92;100.00
23643;BME280;11998;55.788;37.572;2023-02-18T03:04:53;98929.78;;;-7.94;100.00
23643;BME280;11998;55.788;37.572;2023-02-18T03:06:09;98907.47;;;-7.95;100.00
23643;BME280;11998;55.788;37.572;2023-02-18T03:11:11;98899.25;;;-8.08;100.00
23643;BME280;11998;55.788;37.572;2023-02-18T03:15:23;98914.63;;;-7.88;100.00
23643;BME280;11998;55.788;37.572;2023-02-18T03:16:52;98946.59;;;-8.03;100.00
23643;BME280;11998;55.788;37.572;2023-02-18T03:18:00;98921.44;;;-8.10;100.00
23643;BME280;11998;55.788;37.572;2023-02-18T03:21:40;98911.59;;;-8.20;100.00
23643;BME280;11998;55.788;37.572;2023-02-18T03:22:47;98883.09;;;-8.26;100.00
23643;BME280;11998;55.788;37.572;2023-02-18T03:23:55;98884.97;;;-8.22;100.00
23643;BME280;11998;55.788;37.572;2023-02-18T03:24:58;98890.31;;;-8.17;100.00
23643;BME280;11998;55.788;37.572;2023-02-18T03:26:01;98880.91;;;-8.17;100.00
23643;BME280;11998;55.788;37.572;2023-02-18T03:27:43;98885.25;;;-8.16;100.00
23643;BME280;11998;55.788;37.572;2023-02-18T03:28:45;98897.03;;;-8.19;100.00
23643;BME280;11998;55.788;37.572;2023-02-18T03:29:55;98877.25;;;-8.22;100.00
23643;BME280;11998;55.788;37.572;2023-02-18T03:31:03;98859.66;;;-8.13;100.00
23643;BME280;11998;55.788;37.572;2023-02-18T03:32:07;98878.69;;;-8.08;100.00
23643;BME280;11998;55.788;37.572;2023-02-18T03:33:13;98880.66;;;-8.02;100.00
23643;BME280;11998;55.788;37.572;2023-02-18T03:34:21;98868.69;;;-8.02;100.00
23643;BME280;11998;55.788;37.572;2023-02-18T03:35:24;98873.03;;;-8.01;100.00
23643;BME280;11998;55.788;37.572;2023-02-18T03:36:25;98869.91;;;-7.93;100.00
23643;BME280;11998;55.788;37.572;2023-02-18T03:37:26;98859.63;;;-7.93;100.00
23643;BME280;11998;55.788;37.572;2023-02-18T03:39:40;98849.84;;;-7.81;100.00
23643;BME280;11998;55.788;37.572;2023-02-18T03:40:42;98854.28;;;-7.77;100.00
23643;BME280;11998;55.788;37.572;2023-02-18T03:41:43;98865.44;;;-7.77;100.00
23643;BME280;11998;55.788;37.572;2023-02-18T03:42:44;98841.44;;;-7.77;100.00
23643;BME280;11998;55.788;37.572;2023-02-18T03:44:05;98837.59;;;-7.66;100.00
23643;BME280;11998;55.788;37.572;2023-02-18T03:45:06;98822.72;;;-7.73;100.00
23643;BME280;11998;55.788;37.572;2023-02-18T03:46:07;98850.78;;;-7.79;100.00
23643;BME280;11998;55.788;37.572;2023-02-18T03:47:08;98830.31;;;-7.76;100.00
23643;BME280;11998;55.788;37.572;2023-02-18T03:48:08;98846.56;;;-7.77;100.00
23643;BME280;11998;55.788;37.572;2023-02-18T03:49:11;98834.47;;;-7.80;100.00
23643;BME280;11998;55.788;37.572;2023-02-18T03:50:12;98850.72;;;-7.81;100.00
23643;BME280;11998;55.788;37.572;2023-02-18T03:51:12;98827.28;;;-7.88;100.00
23643;BME280;11998;55.788;37.572;2023-02-18T03:52:13;98820.38;;;-7.89;100.00
23643;BME280;11998;55.788;37.572;2023-02-18T03:53:14;98832.34;;;-7.90;100.00
23643;BME280;11998;55.788;37.572;2023-02-18T03:54:14;98825.53;;;-7.89;100.00
23643;BME280;11998;55.788;37.572;2023-02-18T03:55:15;98827.16;;;-7.91;100.00
23643;BME280;11998;55.788;37.572;2023-02-18T03:56:16;98824.31;;;-7.97;100.00
23643;BME280;11998;55.788;37.572;2023-02-18T03:57:17;98816.25;;;-8.07;100.00
23643;BME280;11998;55.788;37.572;2023-02-18T03:58:18;98814.38;;;-8.11;100.00
23643;BME280;11998;55.788;37.572;2023-02-18T03:59:18;98814.63;;;-8.05;100.00
23643;BME280;11998;55.788;37.572;2023-02-18T04:00:19;98818.13;;;-8.03;100.00
23643;BME280;11998;55.788;37.572;2023-02-18T04:01:20;98806.13;;;-8.04;100.00
23643;BME280;11998;55.788;37.572;2023-02-18T04:02:20;98819.13;;;-7.99;100.00
23643;BME280;11998;55.788;37.572;2023-02-18T04:03:21;98804.72;;;-7.95;100.00
23643;BME280;11998;55.788;37.572;2023-02-18T04:04:21;98808.91;;;-7.97;100.00
23643;BME280;11998;55.788;37.572;2023-02-18T04:05:22;98804.59;;;-7.99;100.00
23643;BME280;11998;55.788;37.572;2023-02-18T04:06:23;98829.47;;;-7.97;100.00
23643;BME280;11998;55.788;37.572;2023-02-18T04:07:23;98814.88;;;-7.99;100.00
23643;BME280;11998;55.788;37.572;2023-02-18T04:08:24;98813.22;;;-7.96;100.00
23643;BME280;11998;55.788;37.572;2023-02-18T04:09:25;98804.72;;;-7.95;100.00
23643;BME280;11998;55.788;37.572;2023-02-18T04:10:25;98807.41;;;-7.92;100.00
23643;BME280;11998;55.788;37.572;2023-02-18T04:11:26;98815.25;;;-7.89;100.00
23643;BME280;11998;55.788;37.572;2023-02-18T04:12:26;98816.06;;;-7.90;100.00
23643;BME280;11998;55.788;37.572;2023-02-18T04:13:27;98804.31;;;-7.84;100.00
23643;BME280;11998;55.788;37.572;2023-02-18T04:14:28;98806.06;;;-7.83;100.00
23643;BME280;11998;55.788;37.572;2023-02-18T04:15:29;98807.09;;;-7.79;100.00
23643;BME280;11998;55.788;37.572;2023-02-18T04:16:29;98796.66;;;-7.82;100.00
23643;BME280;11998;55.788;37.572;2023-02-18T04:17:31;98805.34;;;-7.80;100.00
23643;BME280;11998;55.788;37.572;2023-02-18T04:18:32;98790.03;;;-7.77;100.00
23643;BME280;11998;55.788;37.572;2023-02-18T04:19:33;98802.06;;;-7.76;100.00
23643;BME280;11998;55.788;37.572;2023-02-18T04:20:33;98790.13;;;-7.74;100.00
23643;BME280;11998;55.788;37.572;2023-02-18T04:21:34;98795.94;;;-7.80;100.00
23643;BME280;11998;55.788;37.572;2023-02-18T04:22:34;98793.53;;;-7.75;100.00
23643;BME280;11998;55.788;37.572;2023-02-18T04:23:35;98789.78;;;-7.83;100.00
23643;BME280;11998;55.788;37.572;2023-02-18T04:24:35;98791.28;;;-7.88;100.00
23643;BME280;11998;55.788;37.572;2023-02-18T04:25:36;98772.50;;;-7.87;100.00
23643;BME280;11998;55.788;37.572;2023-02-18T04:26:37;98776.88;;;-7.85;100.00
23643;BME280;11998;55.788;37.572;2023-02-18T04:27:37;98780.31;;;-7.84;100.00
23643;BME280;11998;55.788;37.572;2023-02-18T04:28:38;98779.38;;;-7.86;100.00
23643;BME280;11998;55.788;37.572;2023-02-18T04:29:39;98773.53;;;-7.82;100.00
23643;BME280;11998;55.788;37.572;2023-02-18T04:30:40;98767.28;;;-7.89;100.00
23643;BME280;11998;55.788;37.572;2023-02-18T04:31:40;98782.41;;;-7.96;100.00
23643;BME280;11998;55.788;37.572;2023-02-18T04:32:41;98780.66;;;-7.97;100.00
23643;BME280;11998;55.788;37.572;2023-02-18T04:33:41;98772.13;;;-7.96;100.00
23643;BME280;11998;55.788;37.572;2023-02-18T04:34:41;98781.53;;;-7.97;100.00
23643;BME280;11998;55.788;37.572;2023-02-18T04:35:42;98783.81;;;-8.05;100.00
23643;BME280;11998;55.788;37.572;2023-02-18T04:36:43;98777.16;;;-8.00;100.00
23643;BME280;11998;55.788;37.572;2023-02-18T04:37:43;98768.63;;;-7.99;100.00
23643;BME280;11998;55.788;37.572;2023-02-18T04:38:44;98788.31;;;-7.99;100.00
23643;BME280;11998;55.788;37.572;2023-02-18T04:39:45;98769.38;;;-8.01;100.00
23643;BME280;11998;55.788;37.572;2023-02-18T04:40:46;98766.72;;;-8.04;100.00
23643;BME280;11998;55.788;37.572;2023-02-18T04:41:46;98767.63;;;-8.02;100.00
23643;BME280;11998;55.788;37.572;2023-02-18T04:42:47;98770.97;;;-8.05;100.00
23643;BME280;11998;55.788;37.572;2023-02-18T04:43:47;98788.81;;;-8.08;100.00
23643;BME280;11998;55.788;37.572;2023-02-18T04:44:48;98769.88;;;-8.10;100.00
23643;BME280;11998;55.788;37.572;2023-02-18T04:45:48;98761.25;;;-8.12;100.00
23643;BME280;11998;55.788;37.572;2023-02-18T04:46:49;98749.59;;;-8.04;100.00
23643;BME280;11998;55.788;37.572;2023-02-18T04:47:49;98751.25;;;-8.06;100.00
23643;BME280;11998;55.788;37.572;2023-02-18T04:48:50;98769.88;;;-8.10;100.00
23643;BME280;11998;55.788;37.572;2023-02-18T04:49:51;98761.38;;;-8.09;100.00
23643;BME280;11998;55.788;37.572;2023-02-18T04:50:51;98751.25;;;-8.06;100.00
23643;BME280;11998;55.788;37.572;2023-02-18T04:51:52;98748.72;;;-8.04;100.00
23643;BME280;11998;55.788;37.572;2023-02-18T04:52:52;98750.59;;;-8.00;100.00
23643;BME280;11998;55.788;37.572;2023-02-18T04:53:53;98749.44;;;-8.07;100.00
23643;BME280;11998;55.788;37.572;2023-02-18T04:54:53;98757.09;;;-8.08;100.00
23643;BME280;11998;55.788;37.572;2023-02-18T04:55:54;98757.88;;;-8.11;100.00
23643;BME280;11998;55.788;37.572;2023-02-18T04:56:54;98773.97;;;-8.15;100.00
23643;BME280;11998;55.788;37.572;2023-02-18T04:57:55;98754.09;;;-8.19;100.00
23643;BME280;11998;55.788;37.572;2023-02-18T04:58:55;98750.88;;;-8.15;100.00
23643;BME280;11998;55.788;37.572;2023-02-18T04:59:56;98761.13;;;-8.15;100.00
23643;BME280;11998;55.788;37.572;2023-02-18T05:01:01;98772.09;;;-8.19;100.00
23643;BME280;11998;55.788;37.572;2023-02-18T05:02:02;98764.03;;;-8.28;100.00
23643;BME280;11998;55.788;37.572;2023-02-18T05:03:03;98769.13;;;-8.30;100.00
23643;BME280;11998;55.788;37.572;2023-02-18T05:04:03;98752.13;;;-8.26;100.00
23643;BME280;11998;55.788;37.572;2023-02-18T05:05:04;98751.25;;;-8.26;100.00
23643;BME280;11998;55.788;37.572;2023-02-18T05:06:05;98740.09;;;-8.27;100.00
23643;BME280;11998;55.788;37.572;2023-02-18T05:07:05;98750.56;;;-8.22;100.00
23643;BME280;11998;55.788;37.572;2023-02-18T05:08:07;98777.69;;;-8.29;100.00
23643;BME280;11998;55.788;37.572;2023-02-18T05:09:08;98752.00;;;-8.29;100.00
23643;BME280;11998;55.788;37.572;2023-02-18T05:10:10;98733.91;;;-8.32;100.00
23643;BME280;11998;55.788;37.572;2023-02-18T05:11:14;98744.25;;;-8.31;100.00
23643;BME280;11998;55.788;37.572;2023-02-18T05:12:15;98741.75;;;-8.29;100.00
23643;BME280;11998;55.788;37.572;2023-02-18T05:13:15;98737.47;;;-8.29;100.00
23643;BME280;11998;55.788;37.572;2023-02-18T05:14:17;98738.41;;;-8.26;100.00
23643;BME280;11998;55.788;37.572;2023-02-18T05:15:17;98731.59;;;-8.26;100.00
23643;BME280;11998;55.788;37.572;2023-02-18T05:16:18;98738.47;;;-8.25;100.00
23643;BME280;11998;55.788;37.572;2023-02-18T05:17:18;98737.59;;;-8.25;100.00
23643;BME280;11998;55.788;37.572;2023-02-18T05:18:19;98734.97;;;-8.27;100.00
23643;BME280;11998;55.788;37.572;2023-02-18T05:19:19;98746.88;;;-8.29;100.00
23643;BME280;11998;55.788;37.572;2023-02-18T05:20:20;98745.19;;;-8.29;100.00
23643;BME280;11998;55.788;37.572;2023-02-18T05:21:21;98752.84;;;-8.30;100.00
23643;BME280;11998;55.788;37.572;2023-02-18T05:22:21;98733.06;;;-8.31;100.00
23643;BME280;11998;55.788;37.572;2023-02-18T05:23:22;98746.88;;;-8.29;100.00
23643;BME280;11998;55.788;37.572;2023-02-18T05:24:23;98719.31;;;-8.33;100.00
23643;BME280;11998;55.788;37.572;2023-02-18T05:25:24;98728.84;;;-8.31;100.00
23643;BME280;11998;55.788;37.572;2023-02-18T05:26:24;98722.94;;;-8.28;100.00
23643;BME280;11998;55.788;37.572;2023-02-18T05:27:25;98717.16;;;-8.22;100.00
23643;BME280;11998;55.788;37.572;2023-02-18T05:28:26;98723.06;;;-8.25;100.00
23643;BME280;11998;55.788;37.572;2023-02-18T05:29:26;98716.41;;;-8.20;100.00
23643;BME280;11998;55.788;37.572;2023-02-18T05:30:27;98707.78;;;-8.22;100.00
23643;BME280;11998;55.788;37.572;2023-02-18T05:31:27;98709.66;;;-8.18;100.00
23643;BME280;11998;55.788;37.572;2023-02-18T05:32:28;98720.03;;;-8.15;100.00
23643;BME280;11998;55.788;37.572;2023-02-18T05:33:28;98716.56;;;-8.17;100.00
23643;BME280;11998;55.788;37.572;2023-02-18T05:34:29;98700.06;;;-8.22;100.00
23643;BME280;11998;55.788;37.572;2023-02-18T05:35:32;98709.78;;;-8.15;100.00
23643;BME280;11998;55.788;37.572;2023-02-18T05:36:32;98690.28;;;-8.10;100.00
23643;BME280;11998;55.788;37.572;2023-02-18T05:37:33;98705.50;;;-8.14;100.00
23643;BME280;11998;55.788;37.572;2023-02-18T05:38:33;98703.81;;;-8.14;100.00
23643;BME280;11998;55.788;37.572;2023-02-18T05:39:34;98699.63;;;-8.12;100.00
23643;BME280;11998;55.788;37.572;2023-02-18T05:40:34;98711.53;;;-8.14;100.00
23643;BME280;11998;55.788;37.572;2023-02-18T05:41:38;98687.81;;;-8.07;100.00
23643;BME280;11998;55.788;37.572;2023-02-18T05:42:38;98689.59;;;-8.06;100.00
23643;BME280;11998;55.788;37.572;2023-02-18T05:43:39;98709.13;;;-8.09;100.00
23643;BME280;11998;55.788;37.572;2023-02-18T05:44:58;98698.09;;;-8.07;100.00
23643;BME280;11998;55.788;37.572;2023-02-18T05:45:58;98692.44;;;-7.98;100.00
23643;BME280;11998;55.788;37.572;2023-02-18T05:47:02;98679.63;;;-7.96;100.00
23643;BME280;11998;55.788;37.572;2023-02-18T05:48:03;98684.91;;;-7.93;100.00
23643;BME280;11998;55.788;37.572;2023-02-18T05:49:04;98674.63;;;-7.93;100.00
23643;BME280;11998;55.788;37.572;2023-02-18T05:50:05;98677.53;;;-7.84;100.00
23643;BME280;11998;55.788;37.572;2023-02-18T05:51:06;98674.34;;;-7.79;100.00
23643;BME280;11998;55.788;37.572;2023-02-18T05:52:08;98665.13;;;-7.72;100.00
23643;BME280;11998;55.788;37.572;2023-02-18T05:53:10;98689.09;;;-7.73;100.00
23643;BME280;11998;55.788;37.572;2023-02-18T05:54:11;98676.19;;;-7.75;100.00
23643;BME280;11998;55.788;37.572;2023-02-18T05:55:11;98661.06;;;-7.67;100.00
23643;BME280;11998;55.788;37.572;2023-02-18T05:56:12;98655.41;;;-7.57;100.00
23643;BME280;11998;55.788;37.572;2023-02-18T05:57:13;98653.66;;;-7.58;100.00
23643;BME280;11998;55.788;37.572;2023-02-18T05:58:14;98657.88;;;-7.60;100.00
23643;BME280;11998;55.788;37.572;2023-02-18T05:59:16;98648.69;;;-7.53;100.00
23643;BME280;11998;55.788;37.572;2023-02-18T06:00:17;98646.91;;;-7.56;100.00
23643;BME280;11998;55.788;37.572;2023-02-18T06:01:18;98647.09;;;-7.50;100.00
23643;BME280;11998;55.788;37.572;2023-02-18T06:02:18;98646.91;;;-7.56;100.00
23643;BME280;11998;55.788;37.572;2023-02-18T06:03:19;98653.78;;;-7.55;100.00
23643;BME280;11998;55.788;37.572;2023-02-18T06:04:19;98648.66;;;-7.55;100.00
23643;BME280;11998;55.788;37.572;2023-02-18T06:05:20;98637.31;;;-7.60;100.00
23643;BME280;11998;55.788;37.572;2023-02-18T06:06:20;98641.75;;;-7.56;100.00